sensor_id;sensor_type;location;lat;lon;timestamp;temperature;humidity
21811;DHT22;11067;48.788;9.208;2023-08-01T00:02:10;19.10;99.90
21811;DHT22;11067;48.788;9.208;2023-08-01T00:04:35;19.00;99.90
21811;DHT22;11067;48.788;9.208;2023-08-01T00:07:01;19.10;99.90
21811;DHT22;11067;48.788;9.208;2023-08-01T00:09:27;19.00;99.90
21811;DHT22;11067;48.788;9.208;2023-08-01T00:11:52;19.00;99.90
21811;DHT22;11067;48.788;9.208;2023-08-01T00:14:18;19.00;99.90
21811;DHT22;11067;48.788;9.208;2023-08-01T00:16:45;19.00;99.90
21811;DHT22;11067;48.788;9.208;2023-08-01T00:19:11;18.90;99.90
21811;DHT22;11067;48.788;9.208;2023-08-01T00:21:37;19.00;99.90
21811;DHT22;11067;48.788;9.208;2023-08-01T00:24:03;18.90;99.90
21811;DHT22;11067;48.788;9.208;2023-08-01T00:26:29;18.90;99.90
21811;DHT22;11067;48.788;9.208;2023-08-01T00:28:54;18.80;99.90
21811;DHT22;11067;48.788;9.208;2023-08-01T00:31:20;18.80;99.90
21811;DHT22;11067;48.788;9.208;2023-08-01T00:33:45;18.80;99.90
21811;DHT22;11067;48.788;9.208;2023-08-01T00:36:11;18.80;99.90
21811;DHT22;11067;48.788;9.208;2023-08-01T00:38:37;18.80;99.90
21811;DHT22;11067;48.788;9.208;2023-08-01T00:41:03;18.80;99.90
21811;DHT22;11067;48.788;9.208;2023-08-01T00:43:28;18.80;99.90
21811;DHT22;11067;48.788;9.208;2023-08-01T00:45:58;18.70;99.90
21811;DHT22;11067;48.788;9.208;2023-08-01T00:48:25;18.70;99.90
21811;DHT22;11067;48.788;9.208;2023-08-01T00:50:51;18.70;99.90
21811;DHT22;11067;48.788;9.208;2023-08-01T00:53:18;18.70;99.90
21811;DHT22;11067;48.788;9.208;2023-08-01T00:55:43;18.70;99.90
21811;DHT22;11067;48.788;9.208;2023-08-01T00:58:09;18.70;99.90
21811;DHT22;11067;48.788;9.208;2023-08-01T01:00:34;18.70;99.90
21811;DHT22;11067;48.788;9.208;2023-08-01T01:03:00;18.70;99.90
21811;DHT22;11067;48.788;9.208;2023-08-01T01:05:27;18.50;99.90
21811;DHT22;11067;48.788;9.208;2023-08-01T01:07:57;18.40;99.90
21811;DHT22;11067;48.788;9.208;2023-08-01T01:10:23;18.40;99.90
21811;DHT22;11067;48.788;9.208;2023-08-01T01:12:48;18.40;99.90
21811;DHT22;11067;48.788;9.208;2023-08-01T01:15:15;18.40;99.90
21811;DHT22;11067;48.788;9.208;2023-08-01T01:17:41;18.30;99.90
21811;DHT22;11067;48.788;9.208;2023-08-01T01:20:07;18.40;99.90
21811;DHT22;11067;48.788;9.208;2023-08-01T01:22:36;18.50;99.90
21811;DHT22;11067;48.788;9.208;2023-08-01T01:25:03;18.50;99.90
21811;DHT22;11067;48.788;9.208;2023-08-01T01:27:29;18.50;99.90
21811;DHT22;11067;48.788;9.208;2023-08-01T01:29:55;18.70;99.90
21811;DHT22;11067;48.788;9.208;2023-08-01T01:32:21;18.70;99.90
21811;DHT22;11067;48.788;9.208;2023-08-01T01:34:48;18.80;99.90
21811;DHT22;11067;48.788;9.208;2023-08-01T01:37:13;18.90;99.90
21811;DHT22;11067;48.788;9.208;2023-08-01T01:39:39;18.80;99.90
21811;DHT22;11067;48.788;9.208;2023-08-01T01:42:05;18.80;99.90
21811;DHT22;11067;48.788;9.208;2023-08-01T01:44:31;18.90;99.90
21811;DHT22;11067;48.788;9.208;2023-08-01T01:46:56;18.80;99.90
21811;DHT22;11067;48.788;9.208;2023-08-01T01:49:22;18.70;99.90
21811;DHT22;11067;48.788;9.208;2023-08-01T01:51:48;18.70;99.90
21811;DHT22;11067;48.788;9.208;2023-08-01T01:54:13;18.70;99.90
21811;DHT22;11067;48.788;9.208;2023-08-01T01:56:39;18.60;99.90
21811;DHT22;11067;48.788;9.208;2023-08-01T01:59:04;18.60;99.90
21811;DHT22;11067;48.788;9.208;2023-08-01T02:01:30;18.70;99.90
21811;DHT22;11067;48.788;9.208;2023-08-01T02:03:55;18.60;99.90
21811;DHT22;11067;48.788;9.208;2023-08-01T02:06:21;18.60;99.90
21811;DHT22;11067;48.788;9.208;2023-08-01T02:08:46;18.60;99.90
21811;DHT22;11067;48.788;9.208;2023-08-01T02:11:12;18.60;99.90
21811;DHT22;11067;48.788;9.208;2023-08-01T02:13:37;18.60;99.90
21811;DHT22;11067;48.788;9.208;2023-08-01T02:16:03;18.50;99.90
21811;DHT22;11067;48.788;9.208;2023-08-01T02:18:28;18.50;99.90
21811;DHT22;11067;48.788;9.208;2023-08-01T02:20:54;18.50;99.90
21811;DHT22;11067;48.788;9.208;2023-08-01T02:23:19;18.40;99.90
21811;DHT22;11067;48.788;9.208;2023-08-01T02:25:45;18.50;99.90
21811;DHT22;11067;48.788;9.208;2023-08-01T02:28:10;18.50;99.90
21811;DHT22;11067;48.788;9.208;2023-08-01T02:30:38;18.50;99.90
21811;DHT22;11067;48.788;9.208;2023-08-01T02:33:03;18.40;99.90
21811;DHT22;11067;48.788;9.208;2023-08-01T02:35:29;18.30;99.90
21811;DHT22;11067;48.788;9.208;2023-08-01T02:37:55;18.40;99.90
21811;DHT22;11067;48.788;9.208;2023-08-01T02:40:21;18.30;99.90
21811;DHT22;11067;48.788;9.208;2023-08-01T02:42:46;18.40;99.90
21811;DHT22;11067;48.788;9.208;2023-08-01T02:45:12;18.50;99.90
21811;DHT22;11067;48.788;9.208;2023-08-01T02:47:38;18.40;99.90
21811;DHT22;11067;48.788;9.208;2023-08-01T02:50:04;18.30;99.90
21811;DHT22;11067;48.788;9.208;2023-08-01T02:52:30;18.30;99.90
21811;DHT22;11067;48.788;9.208;2023-08-01T02:54:55;18.30;99.90
21811;DHT22;11067;48.788;9.208;2023-08-01T02:57:21;18.40;99.90
21811;DHT22;11067;48.788;9.208;2023-08-01T02:59:46;18.40;99.90
21811;DHT22;11067;48.788;9.208;2023-08-01T03:02:12;18.40;99.90
21811;DHT22;11067;48.788;9.208;2023-08-01T03:04:38;18.30;99.90
21811;DHT22;11067;48.788;9.208;2023-08-01T03:07:03;18.30;99.90
21811;DHT22;11067;48.788;9.208;2023-08-01T03:09:29;18.30;99.90
21811;DHT22;11067;48.788;9.208;2023-08-01T03:11:54;18.30;99.90
21811;DHT22;11067;48.788;9.208;2023-08-01T03:14:20;18.30;99.90
21811;DHT22;11067;48.788;9.208;2023-08-01T03:16:45;18.30;99.90
21811;DHT22;11067;48.788;9.208;2023-08-01T03:19:11;18.40;99.90
21811;DHT22;11067;48.788;9.208;2023-08-01T03:21:37;18.40;99.90
21811;DHT22;11067;48.788;9.208;2023-08-01T03:24:03;18.30;99.90
21811;DHT22;11067;48.788;9.208;2023-08-01T03:26:29;18.30;99.90
21811;DHT22;11067;48.788;9.208;2023-08-01T03:28:55;18.40;99.90
21811;DHT22;11067;48.788;9.208;2023-08-01T03:31:22;18.30;99.90
21811;DHT22;11067;48.788;9.208;2023-08-01T03:33:48;18.30;99.90
21811;DHT22;11067;48.788;9.208;2023-08-01T03:36:13;18.40;99.90
21811;DHT22;11067;48.788;9.208;2023-08-01T03:38:39;18.40;99.90
21811;DHT22;11067;48.788;9.208;2023-08-01T03:41:05;18.40;99.90
21811;DHT22;11067;48.788;9.208;2023-08-01T03:43:30;18.30;99.90
21811;DHT22;11067;48.788;9.208;2023-08-01T03:45:56;18.40;99.90
21811;DHT22;11067;48.788;9.208;2023-08-01T03:48:21;18.40;99.90
21811;DHT22;11067;48.788;9.208;2023-08-01T03:50:47;18.30;99.90
21811;DHT22;11067;48.788;9.208;2023-08-01T03:53:13;18.40;99.90
21811;DHT22;11067;48.788;9.208;2023-08-01T03:55:39;18.30;99.90
21811;DHT22;11067;48.788;9.208;2023-08-01T03:58:04;18.50;99.90
21811;DHT22;11067;48.788;9.208;2023-08-01T04:00:30;18.70;99.90
21811;DHT22;11067;48.788;9.208;2023-08-01T04:02:59;18.80;99.90
21811;DHT22;11067;48.788;9.208;2023-08-01T04:05:25;18.90;99.90
21811;DHT22;11067;48.788;9.208;2023-08-01T04:07:50;19.00;99.90
21811;DHT22;11067;48.788;9.208;2023-08-01T04:10:16;19.10;99.90
21811;DHT22;11067;48.788;9.208;2023-08-01T04:12:41;19.20;99.90
21811;DHT22;11067;48.788;9.208;2023-08-01T04:15:08;19.20;99.90
21811;DHT22;11067;48.788;9.208;2023-08-01T04:17:34;19.40;99.90
21811;DHT22;11067;48.788;9.208;2023-08-01T04:20:00;19.40;99.90
21811;DHT22;11067;48.788;9.208;2023-08-01T04:22:25;19.40;99.90
21811;DHT22;11067;48.788;9.208;2023-08-01T04:24:51;19.40;99.90
21811;DHT22;11067;48.788;9.208;2023-08-01T04:27:17;19.50;99.90
21811;DHT22;11067;48.788;9.208;2023-08-01T04:29:42;19.50;99.90
21811;DHT22;11067;48.788;9.208;2023-08-01T04:32:08;19.40;99.90
21811;DHT22;11067;48.788;9.208;2023-08-01T04:34:33;19.40;99.90
21811;DHT22;11067;48.788;9.208;2023-08-01T04:36:59;19.40;99.90
21811;DHT22;11067;48.788;9.208;2023-08-01T07:42:22;19.40;99.90
21811;DHT22;11067;48.788;9.208;2023-08-01T07:44:48;18.10;99.90
21811;DHT22;11067;48.788;9.208;2023-08-01T07:47:14;18.10;99.90
21811;DHT22;11067;48.788;9.208;2023-08-01T07:49:39;17.90;99.90
21811;DHT22;11067;48.788;9.208;2023-08-01T07:52:05;17.90;99.90
21811;DHT22;11067;48.788;9.208;2023-08-01T07:54:30;17.80;99.90
21811;DHT22;11067;48.788;9.208;2023-08-01T07:56:56;17.70;99.90
21811;DHT22;11067;48.788;9.208;2023-08-01T07:59:21;17.60;99.90
21811;DHT22;11067;48.788;9.208;2023-08-01T08:01:47;17.60;99.90
21811;DHT22;11067;48.788;9.208;2023-08-01T08:04:13;17.60;99.90
21811;DHT22;11067;48.788;9.208;2023-08-01T08:06:40;17.60;99.90
21811;DHT22;11067;48.788;9.208;2023-08-01T08:09:05;17.70;99.90
21811;DHT22;11067;48.788;9.208;2023-08-01T08:11:31;17.80;99.90
21811;DHT22;11067;48.788;9.208;2023-08-01T08:13:57;17.80;99.90
21811;DHT22;11067;48.788;9.208;2023-08-01T08:16:22;17.90;99.90
21811;DHT22;11067;48.788;9.208;2023-08-01T08:18:48;18.00;99.90
21811;DHT22;11067;48.788;9.208;2023-08-01T08:21:13;17.90;99.90
21811;DHT22;11067;48.788;9.208;2023-08-01T08:23:39;17.80;99.90
21811;DHT22;11067;48.788;9.208;2023-08-01T08:26:04;18.00;99.90
21811;DHT22;11067;48.788;9.208;2023-08-01T08:28:32;17.90;99.90
21811;DHT22;11067;48.788;9.208;2023-08-01T08:30:59;18.00;99.90
21811;DHT22;11067;48.788;9.208;2023-08-01T08:33:25;18.00;99.90
21811;DHT22;11067;48.788;9.208;2023-08-01T08:35:50;18.00;99.90
21811;DHT22;11067;48.788;9.208;2023-08-01T08:38:17;18.00;99.90
21811;DHT22;11067;48.788;9.208;2023-08-01T08:43:17;18.10;99.90
21811;DHT22;11067;48.788;9.208;2023-08-01T08:45:43;18.10;99.90
21811;DHT22;11067;48.788;9.208;2023-08-01T08:48:13;18.20;99.90
21811;DHT22;11067;48.788;9.208;2023-08-01T08:50:41;18.40;99.90
21811;DHT22;11067;48.788;9.208;2023-08-01T08:53:08;18.50;99.90
21811;DHT22;11067;48.788;9.208;2023-08-01T08:55:39;18.80;99.90
21811;DHT22;11067;48.788;9.208;2023-08-01T08:58:05;19.00;99.90
21811;DHT22;11067;48.788;9.208;2023-08-01T09:00:31;19.00;99.90
21811;DHT22;11067;48.788;9.208;2023-08-01T09:02:57;19.10;99.90
21811;DHT22;11067;48.788;9.208;2023-08-01T09:05:27;19.40;99.90
21811;DHT22;11067;48.788;9.208;2023-08-01T09:07:55;19.40;99.90
21811;DHT22;11067;48.788;9.208;2023-08-01T09:10:22;19.40;99.90
21811;DHT22;11067;48.788;9.208;2023-08-01T09:12:47;19.40;99.90
21811;DHT22;11067;48.788;9.208;2023-08-01T09:15:14;19.40;99.90
21811;DHT22;11067;48.788;9.208;2023-08-01T09:17:52;19.40;99.90
21811;DHT22;11067;48.788;9.208;2023-08-01T09:20:18;19.10;99.90
21811;DHT22;11067;48.788;9.208;2023-08-01T09:22:45;19.10;99.90
21811;DHT22;11067;48.788;9.208;2023-08-01T09:25:12;19.00;99.90
21811;DHT22;11067;48.788;9.208;2023-08-01T09:27:38;19.00;99.90
21811;DHT22;11067;48.788;9.208;2023-08-01T09:30:14;19.00;99.90
21811;DHT22;11067;48.788;9.208;2023-08-01T09:32:55;19.00;99.90
21811;DHT22;11067;48.788;9.208;2023-08-01T09:35:22;19.10;99.90
21811;DHT22;11067;48.788;9.208;2023-08-01T09:37:48;19.00;99.90
21811;DHT22;11067;48.788;9.208;2023-08-01T09:40:14;19.10;99.90
21811;DHT22;11067;48.788;9.208;2023-08-01T09:42:41;19.40;99.90
21811;DHT22;11067;48.788;9.208;2023-08-01T09:45:17;19.50;99.90
21811;DHT22;11067;48.788;9.208;2023-08-01T09:47:44;19.50;99.90
21811;DHT22;11067;48.788;9.208;2023-08-01T09:50:10;19.60;99.90
21811;DHT22;11067;48.788;9.208;2023-08-01T09:52:37;19.90;99.90
21811;DHT22;11067;48.788;9.208;2023-08-01T09:55:03;19.90;99.90
21811;DHT22;11067;48.788;9.208;2023-08-01T09:57:30;20.10;99.90
21811;DHT22;11067;48.788;9.208;2023-08-01T09:59:57;20.10;99.90
21811;DHT22;11067;48.788;9.208;2023-08-01T10:02:25;20.10;99.90
21811;DHT22;11067;48.788;9.208;2023-08-01T10:04:53;20.40;99.90
21811;DHT22;11067;48.788;9.208;2023-08-01T10:07:25;20.60;99.90
21811;DHT22;11067;48.788;9.208;2023-08-01T10:09:54;20.30;99.90
21811;DHT22;11067;48.788;9.208;2023-08-01T10:12:22;20.40;99.90
21811;DHT22;11067;48.788;9.208;2023-08-01T10:14:48;20.50;99.90
21811;DHT22;11067;48.788;9.208;2023-08-01T10:17:14;20.40;99.90
21811;DHT22;11067;48.788;9.208;2023-08-01T10:19:42;20.40;99.90
21811;DHT22;11067;48.788;9.208;2023-08-01T10:22:08;20.60;99.90
21811;DHT22;11067;48.788;9.208;2023-08-01T10:24:35;20.70;99.90
21811;DHT22;11067;48.788;9.208;2023-08-01T10:27:14;20.90;99.90
21811;DHT22;11067;48.788;9.208;2023-08-01T10:29:42;21.00;99.90
21811;DHT22;11067;48.788;9.208;2023-08-01T10:32:08;20.90;99.90
21811;DHT22;11067;48.788;9.208;2023-08-01T10:34:33;20.80;99.90
21811;DHT22;11067;48.788;9.208;2023-08-01T10:37:00;20.60;99.90
21811;DHT22;11067;48.788;9.208;2023-08-01T10:39:27;20.60;99.90
21811;DHT22;11067;48.788;9.208;2023-08-01T10:42:00;20.40;99.90
21811;DHT22;11067;48.788;9.208;2023-08-01T10:44:26;20.50;99.90
21811;DHT22;11067;48.788;9.208;2023-08-01T10:46:55;20.40;99.90
21811;DHT22;11067;48.788;9.208;2023-08-01T10:49:36;20.50;99.90
21811;DHT22;11067;48.788;9.208;2023-08-01T10:52:23;20.60;99.90
21811;DHT22;11067;48.788;9.208;2023-08-01T10:54:57;20.40;99.90
21811;DHT22;11067;48.788;9.208;2023-08-01T10:57:23;20.10;99.90
21811;DHT22;11067;48.788;9.208;2023-08-01T10:59:49;19.80;99.90
21811;DHT22;11067;48.788;9.208;2023-08-01T11:02:20;20.00;99.90
21811;DHT22;11067;48.788;9.208;2023-08-01T11:05:07;20.30;99.90
21811;DHT22;11067;48.788;9.208;2023-08-01T11:07:34;20.50;99.90
21811;DHT22;11067;48.788;9.208;2023-08-01T11:10:05;20.50;99.90
21811;DHT22;11067;48.788;9.208;2023-08-01T11:12:34;20.40;99.90
21811;DHT22;11067;48.788;9.208;2023-08-01T11:15:01;20.50;99.90
21811;DHT22;11067;48.788;9.208;2023-08-01T11:17:27;20.60;99.90
21811;DHT22;11067;48.788;9.208;2023-08-01T11:20:03;20.80;99.90
21811;DHT22;11067;48.788;9.208;2023-08-01T11:22:29;21.10;99.90
21811;DHT22;11067;48.788;9.208;2023-08-01T11:24:55;21.00;99.90
21811;DHT22;11067;48.788;9.208;2023-08-01T11:27:20;21.10;99.90
21811;DHT22;11067;48.788;9.208;2023-08-01T11:29:46;21.00;99.90
21811;DHT22;11067;48.788;9.208;2023-08-01T11:32:12;21.20;99.90
21811;DHT22;11067;48.788;9.208;2023-08-01T11:34:41;21.20;99.90
21811;DHT22;11067;48.788;9.208;2023-08-01T11:37:10;21.20;99.90
21811;DHT22;11067;48.788;9.208;2023-08-01T11:39:36;21.20;99.90
21811;DHT22;11067;48.788;9.208;2023-08-01T11:42:02;21.30;99.90
21811;DHT22;11067;48.788;9.208;2023-08-01T11:44:28;21.40;99.90
21811;DHT22;11067;48.788;9.208;2023-08-01T11:46:55;21.80;99.90
21811;DHT22;11067;48.788;9.208;2023-08-01T11:49:20;21.90;99.90
21811;DHT22;11067;48.788;9.208;2023-08-01T11:51:46;22.20;99.90
21811;DHT22;11067;48.788;9.208;2023-08-01T11:54:12;22.00;99.90
21811;DHT22;11067;48.788;9.208;2023-08-01T11:56:41;22.20;99.90
21811;DHT22;11067;48.788;9.208;2023-08-01T11:59:12;22.30;99.90
21811;DHT22;11067;48.788;9.208;2023-08-01T12:01:43;22.30;99.90
21811;DHT22;11067;48.788;9.208;2023-08-01T12:04:09;22.10;99.90
21811;DHT22;11067;48.788;9.208;2023-08-01T12:06:34;22.20;99.90
21811;DHT22;11067;48.788;9.208;2023-08-01T12:09:12;22.20;99.90
21811;DHT22;11067;48.788;9.208;2023-08-01T12:11:39;22.50;99.90
21811;DHT22;11067;48.788;9.208;2023-08-01T12:14:10;22.50;99.90
21811;DHT22;11067;48.788;9.208;2023-08-01T12:16:40;22.30;99.90
21811;DHT22;11067;48.788;9.208;2023-08-01T12:19:07;22.40;99.90
21811;DHT22;11067;48.788;9.208;2023-08-01T12:21:34;22.60;99.90
21811;DHT22;11067;48.788;9.208;2023-08-01T12:24:00;22.80;99.90
21811;DHT22;11067;48.788;9.208;2023-08-01T12:26:25;22.80;99.90
21811;DHT22;11067;48.788;9.208;2023-08-01T12:28:51;22.90;99.90
21811;DHT22;11067;48.788;9.208;2023-08-01T12:31:18;22.90;99.90
21811;DHT22;11067;48.788;9.208;2023-08-01T12:33:44;23.10;99.90
21811;DHT22;11067;48.788;9.208;2023-08-01T12:36:10;22.70;99.90
21811;DHT22;11067;48.788;9.208;2023-08-01T12:38:35;23.00;99.90
21811;DHT22;11067;48.788;9.208;2023-08-01T12:41:01;22.90;99.90
21811;DHT22;11067;48.788;9.208;2023-08-01T12:43:27;22.80;99.90
21811;DHT22;11067;48.788;9.208;2023-08-01T12:45:53;23.10;99.90
21811;DHT22;11067;48.788;9.208;2023-08-01T12:48:18;22.90;99.90
21811;DHT22;11067;48.788;9.208;2023-08-01T12:50:47;22.90;99.90
21811;DHT22;11067;48.788;9.208;2023-08-01T12:53:14;23.10;99.90
21811;DHT22;11067;48.788;9.208;2023-08-01T12:55:51;22.90;99.90
21811;DHT22;11067;48.788;9.208;2023-08-01T12:58:17;22.90;99.90
21811;DHT22;11067;48.788;9.208;2023-08-01T13:00:43;23.10;99.90
21811;DHT22;11067;48.788;9.208;2023-08-01T13:03:10;23.20;99.90
21811;DHT22;11067;48.788;9.208;2023-08-01T13:05:37;23.10;99.90
21811;DHT22;11067;48.788;9.208;2023-08-01T13:08:03;23.10;99.90
21811;DHT22;11067;48.788;9.208;2023-08-01T13:10:33;22.80;99.90
21811;DHT22;11067;48.788;9.208;2023-08-01T13:12:59;23.10;99.90
21811;DHT22;11067;48.788;9.208;2023-08-01T13:15:25;23.20;99.90
21811;DHT22;11067;48.788;9.208;2023-08-01T13:17:51;23.00;99.90
21811;DHT22;11067;48.788;9.208;2023-08-01T14:43:12;23.30;99.90
21811;DHT22;11067;48.788;9.208;2023-08-01T14:45:39;23.50;99.90
21811;DHT22;11067;48.788;9.208;2023-08-01T14:48:05;23.50;99.90
21811;DHT22;11067;48.788;9.208;2023-08-01T14:50:31;23.70;99.90
21811;DHT22;11067;48.788;9.208;2023-08-01T14:52:59;23.70;99.90
21811;DHT22;11067;48.788;9.208;2023-08-01T14:55:25;23.70;99.90
21811;DHT22;11067;48.788;9.208;2023-08-01T14:57:50;23.60;99.90
21811;DHT22;11067;48.788;9.208;2023-08-01T15:00:16;23.70;99.90
21811;DHT22;11067;48.788;9.208;2023-08-01T15:02:42;23.60;99.90
21811;DHT22;11067;48.788;9.208;2023-08-01T15:05:08;23.80;99.90
21811;DHT22;11067;48.788;9.208;2023-08-01T15:07:33;23.60;99.60
21811;DHT22;11067;48.788;9.208;2023-08-01T15:09:59;23.70;99.90
21811;DHT22;11067;48.788;9.208;2023-08-01T15:12:24;23.60;99.90
21811;DHT22;11067;48.788;9.208;2023-08-01T15:14:55;23.50;99.90
21811;DHT22;11067;48.788;9.208;2023-08-01T15:17:21;23.40;99.90
21811;DHT22;11067;48.788;9.208;2023-08-01T15:19:47;23.60;99.90
21811;DHT22;11067;48.788;9.208;2023-08-01T15:22:13;23.60;99.90
21811;DHT22;11067;48.788;9.208;2023-08-01T15:24:39;23.50;99.90
21811;DHT22;11067;48.788;9.208;2023-08-01T15:27:05;23.60;99.90
21811;DHT22;11067;48.788;9.208;2023-08-01T15:29:30;23.70;99.90
21811;DHT22;11067;48.788;9.208;2023-08-01T15:31:56;23.40;99.90
21811;DHT22;11067;48.788;9.208;2023-08-01T15:34:22;23.50;99.90
21811;DHT22;11067;48.788;9.208;2023-08-01T15:36:47;23.40;99.90
21811;DHT22;11067;48.788;9.208;2023-08-01T15:39:13;23.40;99.90
21811;DHT22;11067;48.788;9.208;2023-08-01T15:41:39;23.20;99.90
21811;DHT22;11067;48.788;9.208;2023-08-01T15:44:05;23.40;99.90
21811;DHT22;11067;48.788;9.208;2023-08-01T15:46:32;23.60;99.90
21811;DHT22;11067;48.788;9.208;2023-08-01T15:48:58;23.70;99.90
21811;DHT22;11067;48.788;9.208;2023-08-01T15:51:23;23.60;99.90
21811;DHT22;11067;48.788;9.208;2023-08-01T15:53:49;23.40;99.90
21811;DHT22;11067;48.788;9.208;2023-08-01T15:56:14;23.30;99.90
21811;DHT22;11067;48.788;9.208;2023-08-01T15:58:40;23.30;99.90
21811;DHT22;11067;48.788;9.208;2023-08-01T16:01:06;23.30;99.90
21811;DHT22;11067;48.788;9.208;2023-08-01T16:03:36;23.30;99.90
21811;DHT22;11067;48.788;9.208;2023-08-01T16:06:03;23.20;99.90
21811;DHT22;11067;48.788;9.208;2023-08-01T16:08:28;23.10;99.90
21811;DHT22;11067;48.788;9.208;2023-08-01T16:10:54;23.20;99.90
21811;DHT22;11067;48.788;9.208;2023-08-01T16:13:20;23.50;99.90
21811;DHT22;11067;48.788;9.208;2023-08-01T16:15:45;23.50;99.90
21811;DHT22;11067;48.788;9.208;2023-08-01T16:18:11;23.60;99.90
21811;DHT22;11067;48.788;9.208;2023-08-01T16:20:37;23.70;99.90
21811;DHT22;11067;48.788;9.208;2023-08-01T16:23:03;23.10;99.90
21811;DHT22;11067;48.788;9.208;2023-08-01T16:25:28;23.30;99.90
21811;DHT22;11067;48.788;9.208;2023-08-01T16:27:54;23.40;99.90
21811;DHT22;11067;48.788;9.208;2023-08-01T16:30:19;23.50;99.90
21811;DHT22;11067;48.788;9.208;2023-08-01T16:32:45;23.60;99.90
21811;DHT22;11067;48.788;9.208;2023-08-01T16:35:16;23.60;99.90
21811;DHT22;11067;48.788;9.208;2023-08-01T16:37:42;23.40;99.90
21811;DHT22;11067;48.788;9.208;2023-08-01T16:40:09;23.40;99.90
21811;DHT22;11067;48.788;9.208;2023-08-01T16:42:35;23.30;99.90
21811;DHT22;11067;48.788;9.208;2023-08-01T16:45:01;23.40;99.90
21811;DHT22;11067;48.788;9.208;2023-08-01T16:47:27;23.30;99.90
21811;DHT22;11067;48.788;9.208;2023-08-01T16:49:55;23.50;99.90
21811;DHT22;11067;48.788;9.208;2023-08-01T16:52:21;23.80;99.90
21811;DHT22;11067;48.788;9.208;2023-08-01T16:54:47;23.90;99.90
21811;DHT22;11067;48.788;9.208;2023-08-01T16:57:13;23.90;99.70
21811;DHT22;11067;48.788;9.208;2023-08-01T16:59:39;23.90;99.80
21811;DHT22;11067;48.788;9.208;2023-08-01T17:02:08;23.80;99.90
21811;DHT22;11067;48.788;9.208;2023-08-01T17:04:37;23.80;99.90
21811;DHT22;11067;48.788;9.208;2023-08-01T17:07:02;23.70;99.90
21811;DHT22;11067;48.788;9.208;2023-08-01T17:09:29;24.10;99.90
21811;DHT22;11067;48.788;9.208;2023-08-01T17:11:54;23.80;98.80
21811;DHT22;11067;48.788;9.208;2023-08-01T17:14:20;23.50;98.90
21811;DHT22;11067;48.788;9.208;2023-08-01T17:16:46;23.80;98.30
21811;DHT22;11067;48.788;9.208;2023-08-01T17:19:14;23.50;99.00
21811;DHT22;11067;48.788;9.208;2023-08-01T17:21:40;23.50;98.80
21811;DHT22;11067;48.788;9.208;2023-08-01T17:24:07;23.50;98.50
21811;DHT22;11067;48.788;9.208;2023-08-01T17:26:33;23.90;98.30
21811;DHT22;11067;48.788;9.208;2023-08-01T17:28:59;24.00;97.80
21811;DHT22;11067;48.788;9.208;2023-08-01T17:31:24;23.90;97.90
21811;DHT22;11067;48.788;9.208;2023-08-01T17:33:51;23.80;98.70
21811;DHT22;11067;48.788;9.208;2023-08-01T17:36:17;23.70;99.00
21811;DHT22;11067;48.788;9.208;2023-08-01T17:38:43;23.90;97.70
21811;DHT22;11067;48.788;9.208;2023-08-01T17:41:28;23.60;98.90
21811;DHT22;11067;48.788;9.208;2023-08-01T17:43:56;23.90;99.20
21811;DHT22;11067;48.788;9.208;2023-08-01T17:46:21;24.10;98.40
21811;DHT22;11067;48.788;9.208;2023-08-01T17:48:48;24.10;98.40
21811;DHT22;11067;48.788;9.208;2023-08-01T17:51:15;23.80;98.20
21811;DHT22;11067;48.788;9.208;2023-08-01T17:53:43;23.60;98.50
21811;DHT22;11067;48.788;9.208;2023-08-01T17:56:10;23.30;99.00
21811;DHT22;11067;48.788;9.208;2023-08-01T17:58:36;23.20;99.20
21811;DHT22;11067;48.788;9.208;2023-08-01T18:01:02;23.20;99.70
21811;DHT22;11067;48.788;9.208;2023-08-01T18:03:31;23.30;99.30
21811;DHT22;11067;48.788;9.208;2023-08-01T18:06:10;23.30;99.60
21811;DHT22;11067;48.788;9.208;2023-08-01T18:08:40;23.50;99.90
21811;DHT22;11067;48.788;9.208;2023-08-01T18:11:12;23.40;99.80
21811;DHT22;11067;48.788;9.208;2023-08-01T18:13:39;23.20;99.90
21811;DHT22;11067;48.788;9.208;2023-08-01T18:16:05;22.90;99.90
21811;DHT22;11067;48.788;9.208;2023-08-01T18:18:34;22.60;99.90
21811;DHT22;11067;48.788;9.208;2023-08-01T18:21:02;22.20;99.90
21811;DHT22;11067;48.788;9.208;2023-08-01T18:23:28;22.00;99.90
21811;DHT22;11067;48.788;9.208;2023-08-01T18:25:53;21.90;99.90
21811;DHT22;11067;48.788;9.208;2023-08-01T18:28:19;21.70;99.90
21811;DHT22;11067;48.788;9.208;2023-08-01T18:30:45;21.60;99.90
21811;DHT22;11067;48.788;9.208;2023-08-01T18:33:11;21.50;99.90
21811;DHT22;11067;48.788;9.208;2023-08-01T18:35:41;21.50;99.90
21811;DHT22;11067;48.788;9.208;2023-08-01T18:38:07;21.40;99.90
21811;DHT22;11067;48.788;9.208;2023-08-01T18:40:33;21.30;99.90
21811;DHT22;11067;48.788;9.208;2023-08-01T18:42:58;21.30;99.90
21811;DHT22;11067;48.788;9.208;2023-08-01T18:45:24;21.20;99.90
21811;DHT22;11067;48.788;9.208;2023-08-01T18:47:50;21.10;99.90
21811;DHT22;11067;48.788;9.208;2023-08-01T18:50:16;21.10;99.90
21811;DHT22;11067;48.788;9.208;2023-08-01T18:52:46;21.00;99.90
21811;DHT22;11067;48.788;9.208;2023-08-01T18:55:15;21.00;99.90
21811;DHT22;11067;48.788;9.208;2023-08-01T18:57:43;20.90;99.90
21811;DHT22;11067;48.788;9.208;2023-08-01T19:00:09;20.80;99.90
21811;DHT22;11067;48.788;9.208;2023-08-01T19:02:35;20.80;99.90
21811;DHT22;11067;48.788;9.208;2023-08-01T19:05:05;20.70;99.90
21811;DHT22;11067;48.788;9.208;2023-08-01T19:07:31;20.70;99.90
21811;DHT22;11067;48.788;9.208;2023-08-01T19:09:57;20.70;99.90
21811;DHT22;11067;48.788;9.208;2023-08-01T19:12:22;20.60;99.90
21811;DHT22;11067;48.788;9.208;2023-08-01T19:14:48;20.50;99.90
21811;DHT22;11067;48.788;9.208;2023-08-01T19:17:13;20.50;99.90
21811;DHT22;11067;48.788;9.208;2023-08-01T19:19:40;20.40;99.90
21811;DHT22;11067;48.788;9.208;2023-08-01T19:22:06;20.40;99.90
21811;DHT22;11067;48.788;9.208;2023-08-01T19:24:31;20.30;99.90
21811;DHT22;11067;48.788;9.208;2023-08-01T19:26:57;20.30;99.90
21811;DHT22;11067;48.788;9.208;2023-08-01T19:29:22;20.30;99.90
21811;DHT22;11067;48.788;9.208;2023-08-01T19:31:48;20.20;99.90
21811;DHT22;11067;48.788;9.208;2023-08-01T19:34:13;20.20;99.90
21811;DHT22;11067;48.788;9.208;2023-08-01T19:36:39;20.10;99.90
21811;DHT22;11067;48.788;9.208;2023-08-01T19:39:04;20.20;99.90
21811;DHT22;11067;48.788;9.208;2023-08-01T19:41:30;20.10;99.90
21811;DHT22;11067;48.788;9.208;2023-08-01T19:43:56;20.10;99.90
21811;DHT22;11067;48.788;9.208;2023-08-01T19:46:21;20.00;99.90
21811;DHT22;11067;48.788;9.208;2023-08-01T19:48:48;20.00;99.90
21811;DHT22;11067;48.788;9.208;2023-08-01T19:51:13;20.00;99.90
21811;DHT22;11067;48.788;9.208;2023-08-01T19:53:40;20.00;99.90
21811;DHT22;11067;48.788;9.208;2023-08-01T19:56:06;20.00;99.90